Time;durP1;ratioP1;P1;durP2;ratioP2;P2;SDS_P1;SDS_P2;PMS_P1;PMS_P2;Temp;Humidity;BMP_temperature;BMP_pressure;BME280_temperature;BME280_humidity;BME280_pressure;Samples;Min_cycle;Max_cycle;Signal;HPM_P1;HPM_P2
2023/10/10 00:01:02;;;;;;;14.18;6.93;;;;;;;;;;4997075;28;20040;-78
2023/10/10 00:03:31;;;;;;;14.35;6.57;;;;;;;;;;4971492;28;20575;-77
2023/10/10 00:05:58;;;;;;;16.30;6.38;;;;;;;;;;4990922;28;20341;-77
2023/10/10 00:08:33;;;;;;;12.00;6.10;;;;;;;;;;4999293;28;20029;-76
2023/10/10 00:10:59;;;;;;;15.48;6.78;;;;;;;;;;5000245;28;20053;-77
2023/10/10 00:13:24;;;;;;;16.52;6.35;;;;;;;;;;5004109;28;20034;-77
2023/10/10 00:15:51;;;;;;;13.77;6.38;;;;;;;;;;4985441;28;20025;-76
2023/10/10 00:18:19;;;;;;;11.98;5.82;;;;;;;;;;4971440;28;20327;-76
2023/10/10 00:23:33;;;;;;;13.38;6.40;;;;;;;;;;5001116;28;20048;-76
2023/10/10 00:25:59;;;;;;;14.35;6.22;;;;;;;;;;4985002;28;20045;-76
2023/10/10 00:28:27;;;;;;;11.50;6.13;;;;;;;;;;4991074;28;20391;-76
2023/10/10 00:30:53;;;;;;;13.55;5.68;;;;;;;;;;4985728;28;20036;-76
2023/10/10 00:33:22;;;;;;;11.98;6.13;;;;;;;;;;4992206;28;20026;-76
2023/10/10 00:35:48;;;;;;;11.98;5.45;;;;;;;;;;4993107;28;20318;-75
2023/10/10 00:38:19;;;;;;;12.00;6.22;;;;;;;;;;4987897;28;20025;-77
2023/10/10 00:40:47;;;;;;;14.88;6.13;;;;;;;;;;4976291;28;20033;-75
2023/10/10 00:43:22;;;;;;;16.92;6.18;;;;;;;;;;4988365;28;20022;-75
2023/10/10 00:45:55;;;;;;;12.02;5.85;;;;;;;;;;4974619;28;20467;-76
2023/10/10 00:48:22;;;;;;;17.05;6.53;;;;;;;;;;4981967;28;20044;-77
2023/10/10 00:51:05;;;;;;;13.95;6.30;;;;;;;;;;4980225;28;20022;-76
2023/10/10 00:53:33;;;;;;;13.52;6.88;;;;;;;;;;4995336;28;20041;-76
2023/10/10 00:55:59;;;;;;;11.07;5.68;;;;;;;;;;4977824;28;20149;-78
2023/10/10 00:58:35;;;;;;;15.90;5.82;;;;;;;;;;4991916;28;20492;-78
2023/10/10 01:01:07;;;;;;;12.20;5.90;;;;;;;;;;4985605;28;20108;-77
2023/10/10 01:03:34;;;;;;;14.90;6.07;;;;;;;;;;4962341;28;20471;-75
2023/10/10 01:06:05;;;;;;;11.70;5.60;;;;;;;;;;4985869;28;20025;-78
2023/10/10 01:08:57;;;;;;;12.43;5.97;;;;;;;;;;4991599;28;20032;-75
2023/10/10 01:11:23;;;;;;;16.90;6.10;;;;;;;;;;4988849;28;20060;-76
2023/10/10 01:13:52;;;;;;;16.27;6.10;;;;;;;;;;4986740;28;20036;-75
2023/10/10 01:16:17;;;;;;;13.27;6.10;;;;;;;;;;4989833;28;20029;-77
2023/10/10 01:18:51;;;;;;;11.55;5.60;;;;;;;;;;4987076;28;20032;-75
2023/10/10 01:21:31;;;;;;;14.52;6.07;;;;;;;;;;4980654;28;20033;-77
2023/10/10 01:24:11;;;;;;;16.15;6.03;;;;;;;;;;4980892;28;20819;-75
2023/10/10 01:26:44;;;;;;;15.40;5.88;;;;;;;;;;4989726;28;20463;-75
2023/10/10 01:29:21;;;;;;;12.80;5.55;;;;;;;;;;4991821;28;20022;-78
2023/10/10 01:31:48;;;;;;;14.55;5.55;;;;;;;;;;4986090;28;20060;-75
2023/10/10 01:34:30;;;;;;;15.75;6.35;;;;;;;;;;4991462;28;20033;-78
2023/10/10 01:37:20;;;;;;;12.13;5.50;;;;;;;;;;4989113;28;20671;-77
2023/10/10 01:40:11;;;;;;;16.92;5.82;;;;;;;;;;4980447;28;20746;-75
2023/10/10 01:42:43;;;;;;;14.07;5.72;;;;;;;;;;4979970;28;20029;-75
2023/10/10 01:45:08;;;;;;;12.57;5.78;;;;;;;;;;4990268;28;20018;-78
2023/10/10 01:47:35;;;;;;;10.65;5.20;;;;;;;;;;4990551;28;20056;-76
2023/10/10 01:50:12;;;;;;;12.10;5.65;;;;;;;;;;4998216;28;20037;-78
2023/10/10 01:52:38;;;;;;;13.07;5.10;;;;;;;;;;4990748;28;20055;-76
2023/10/10 01:55:05;;;;;;;12.52;5.80;;;;;;;;;;4989615;28;20037;-77
2023/10/10 01:57:31;;;;;;;10.05;5.03;;;;;;;;;;4971287;28;20022;-78
2023/10/10 01:59:58;;;;;;;15.07;5.32;;;;;;;;;;4978288;28;20026;-77
2023/10/10 02:02:26;;;;;;;12.90;5.28;;;;;;;;;;4990208;28;20030;-77
2023/10/10 02:04:56;;;;;;;12.32;5.43;;;;;;;;;;4988930;28;20056;-75
2023/10/10 02:07:26;;;;;;;12.57;5.20;;;;;;;;;;4982038;28;20092;-76
2023/10/10 02:10:36;;;;;;;13.80;5.38;;;;;;;;;;4981788;28;20054;-77
2023/10/10 02:12:47;;;;;;;11.63;5.20;;;;;;;;;;4984429;28;20058;-76
2023/10/10 02:15:15;;;;;;;12.70;5.63;;;;;;;;;;4987210;28;20041;-78
2023/10/10 02:17:50;;;;;;;11.68;5.63;;;;;;;;;;4986349;28;20022;-75
2023/10/10 02:20:33;;;;;;;;;;;;;;;;;;4989171;28;20033;-75
2023/10/10 02:30:45;;;;;;;10.23;4.70;;;;;;;;;;4985449;28;20022;-77
2023/10/10 02:33:17;;;;;;;11.27;5.50;;;;;;;;;;4986350;28;20026;-77
2023/10/10 02:38:17;;;;;;;11.73;5.30;;;;;;;;;;4988331;28;20140;-77
2023/10/10 02:40:43;;;;;;;10.75;4.85;;;;;;;;;;4984280;28;20150;-76
2023/10/10 02:46:05;;;;;;;12.63;5.20;;;;;;;;;;4970670;28;20545;-77
2023/10/10 02:48:34;;;;;;;9.77;5.03;;;;;;;;;;4992887;28;20034;-77
2023/10/10 02:51:03;;;;;;;10.18;5.07;;;;;;;;;;4994165;28;20049;-77
2023/10/10 02:53:32;;;;;;;10.00;4.95;;;;;;;;;;4987362;28;20709;-77
2023/10/10 02:56:01;;;;;;;11.13;4.68;;;;;;;;;;4987103;28;20100;-77
2023/10/10 02:58:37;;;;;;;11.18;4.80;;;;;;;;;;4996553;28;20022;-77
2023/10/10 03:01:04;;;;;;;10.20;5.30;;;;;;;;;;4977649;28;20052;-77
2023/10/10 03:03:29;;;;;;;9.50;4.80;;;;;;;;;;4993405;28;20029;-78
2023/10/10 03:05:55;;;;;;;12.32;5.07;;;;;;;;;;4981778;28;20096;-75
2023/10/10 03:08:51;;;;;;;12.15;5.60;;;;;;;;;;4995401;28;20194;-78
2023/10/10 03:11:35;;;;;;;12.68;4.78;;;;;;;;;;4996241;28;20042;-77
2023/10/10 03:14:07;;;;;;;11.50;4.97;;;;;;;;;;4986521;28;20123;-77
2023/10/10 03:16:44;;;;;;;13.48;5.20;;;;;;;;;;4998992;28;20659;-76
2023/10/10 03:24:29;;;;;;;9.45;4.63;;;;;;;;;;4991435;28;20046;-77
2023/10/10 03:27:36;;;;;;;11.77;5.10;;;;;;;;;;4991616;28;20022;-77
2023/10/10 03:29:50;;;;;;;9.30;4.97;;;;;;;;;;4979419;28;20030;-77
2023/10/10 03:34:57;;;;;;;10.13;5.30;;;;;;;;;;4985179;28;20037;-77
2023/10/10 03:39:55;;;;;;;11.73;5.30;;;;;;;;;;4988255;28;20038;-76
2023/10/10 05:23:52;;;;;;;11.35;4.72;;;;;;;;;;4985301;28;20076;-77
2023/10/10 05:26:19;;;;;;;9.65;4.63;;;;;;;;;;4989163;28;20030;-77
2023/10/10 05:28:48;;;;;;;8.65;4.45;;;;;;;;;;4990397;28;20096;-77
2023/10/10 05:31:18;;;;;;;10.48;4.80;;;;;;;;;;4980878;28;20154;-78
2023/10/10 05:33:44;;;;;;;11.73;4.85;;;;;;;;;;4986923;28;20659;-77
2023/10/10 05:36:09;;;;;;;11.80;4.75;;;;;;;;;;4987692;28;20030;-77
2023/10/10 05:38:39;;;;;;;10.48;5.00;;;;;;;;;;4982102;28;20022;-77
2023/10/10 05:41:07;;;;;;;10.30;4.35;;;;;;;;;;4978559;28;20041;-79
2023/10/10 05:43:34;;;;;;;9.98;4.43;;;;;;;;;;4992143;28;20123;-77
2023/10/10 05:46:00;;;;;;;13.85;4.80;;;;;;;;;;4988376;28;20483;-78
2023/10/10 05:48:31;;;;;;;11.25;4.72;;;;;;;;;;4991900;28;20033;-79
2023/10/10 05:50:57;;;;;;;9.90;4.25;;;;;;;;;;4986371;28;20076;-78
2023/10/10 05:53:24;;;;;;;14.05;5.03;;;;;;;;;;4984365;28;20022;-78
2023/10/10 05:55:53;;;;;;;10.77;4.90;;;;;;;;;;4987851;28;20018;-77
2023/10/10 05:58:20;;;;;;;14.70;5.88;;;;;;;;;;4992560;28;20026;-77
2023/10/10 06:00:48;;;;;;;12.35;5.50;;;;;;;;;;4987600;28;20060;-77
2023/10/10 06:03:16;;;;;;;13.15;5.63;;;;;;;;;;4983544;28;20759;-78
2023/10/10 06:05:46;;;;;;;12.63;5.25;;;;;;;;;;4985937;28;20037;-78
2023/10/10 06:08:13;;;;;;;10.98;4.57;;;;;;;;;;4979861;28;20704;-74
2023/10/10 06:10:42;;;;;;;12.00;4.88;;;;;;;;;;4970548;28;20033;-78
2023/10/10 06:13:07;;;;;;;15.00;5.15;;;;;;;;;;4981784;28;20109;-77
2023/10/10 06:15:34;;;;;;;13.27;5.30;;;;;;;;;;4988452;28;20140;-76
2023/10/10 06:18:13;;;;;;;12.68;5.47;;;;;;;;;;4983958;28;20104;-77
2023/10/10 06:20:42;;;;;;;9.82;4.97;;;;;;;;;;4991839;28;20061;-77
2023/10/10 06:23:14;;;;;;;19.10;5.80;;;;;;;;;;4980846;28;20034;-77
2023/10/10 06:25:40;;;;;;;13.48;5.28;;;;;;;;;;4993623;28;20034;-77
2023/10/10 06:28:06;;;;;;;21.17;5.63;;;;;;;;;;4989401;28;20029;-78
2023/10/10 06:30:36;;;;;;;12.45;4.90;;;;;;;;;;4996869;28;20433;-77
2023/10/10 06:33:15;;;;;;;13.88;4.95;;;;;;;;;;4980024;28;20766;-80
2023/10/10 06:35:51;;;;;;;10.05;5.00;;;;;;;;;;4988307;28;20222;-78
2023/10/10 06:38:17;;;;;;;14.32;5.50;;;;;;;;;;4982682;28;20402;-78
2023/10/10 06:40:52;;;;;;;13.13;5.47;;;;;;;;;;4987649;28;20037;-78
2023/10/10 06:43:19;;;;;;;12.48;5.05;;;;;;;;;;4995158;28;20653;-78
2023/10/10 06:45:52;;;;;;;11.38;5.05;;;;;;;;;;4987226;28;20154;-77
2023/10/10 06:48:21;;;;;;;14.38;5.53;;;;;;;;;;4994734;28;20112;-77
2023/10/10 06:50:50;;;;;;;17.58;5.45;;;;;;;;;;4989080;28;20510;-77
2023/10/10 06:53:35;;;;;;;12.43;5.30;;;;;;;;;;4987302;28;20069;-77
2023/10/10 06:58:50;;;;;;;13.20;5.30;;;;;;;;;;4971775;28;20106;-77
2023/10/10 07:01:19;;;;;;;14.82;4.93;;;;;;;;;;4995298;28;20275;-77
2023/10/10 07:03:54;;;;;;;14.60;5.30;;;;;;;;;;4993128;28;20049;-77
2023/10/10 07:06:21;;;;;;;10.32;5.10;;;;;;;;;;4993891;28;20041;-79
2023/10/10 07:09:03;;;;;;;18.25;7.38;;;;;;;;;;4980964;28;20125;-78
2023/10/10 07:11:29;;;;;;;15.43;6.07;;;;;;;;;;4971171;28;20026;-78
2023/10/10 07:13:58;;;;;;;33.08;7.85;;;;;;;;;;4980584;28;20051;-78
2023/10/10 07:16:24;;;;;;;23.52;8.00;;;;;;;;;;4990948;28;20109;-77
2023/10/10 07:18:56;;;;;;;21.35;7.30;;;;;;;;;;4976735;28;20121;-77
2023/10/10 07:21:36;;;;;;;29.20;7.35;;;;;;;;;;4979063;28;20117;-77
2023/10/10 07:24:13;;;;;;;20.63;7.45;;;;;;;;;;4983401;28;20038;-78
2023/10/10 07:26:41;;;;;;;22.75;6.95;;;;;;;;;;4986636;28;20027;-77
2023/10/10 07:32:16;;;;;;;24.95;7.18;;;;;;;;;;4989992;28;20061;-78
2023/10/10 07:34:42;;;;;;;;;;;;;;;;;;4979753;28;20296;-77
2023/10/10 07:37:08;;;;;;;22.13;6.78;;;;;;;;;;4987666;28;20681;-77
2023/10/10 07:39:36;;;;;;;24.25;6.80;;;;;;;;;;4984086;28;20041;-78
2023/10/10 07:42:08;;;;;;;24.70;6.90;;;;;;;;;;4988065;28;20037;-78
2023/10/10 07:44:34;;;;;;;17.85;6.35;;;;;;;;;;4992490;28;20048;-77
2023/10/10 07:49:50;;;;;;;28.95;6.72;;;;;;;;;;4990636;28;20033;-78
2023/10/10 07:52:16;;;;;;;18.23;6.80;;;;;;;;;;4992452;28;20509;-78
2023/10/10 07:54:45;;;;;;;16.40;6.60;;;;;;;;;;4987661;28;20022;-78
2023/10/10 07:57:17;;;;;;;15.90;6.57;;;;;;;;;;4996208;28;20113;-78
2023/10/10 07:59:46;;;;;;;17.17;6.85;;;;;;;;;;4971864;28;20815;-78
2023/10/10 08:04:57;;;;;;;40.53;7.60;;;;;;;;;;4975964;28;20034;-77
2023/10/10 08:07:23;;;;;;;19.75;7.40;;;;;;;;;;4984992;28;20502;-77
2023/10/10 08:09:49;;;;;;;16.45;7.03;;;;;;;;;;4976307;28;20029;-77
2023/10/10 08:12:16;;;;;;;18.83;6.80;;;;;;;;;;4987769;28;20029;-79
2023/10/10 08:14:44;;;;;;;16.05;7.00;;;;;;;;;;4984554;28;20121;-78
2023/10/10 08:17:19;;;;;;;19.02;6.82;;;;;;;;;;4992310;28;20030;-78
2023/10/10 08:19:53;;;;;;;22.20;6.90;;;;;;;;;;4991206;28;20022;-78
2023/10/10 08:22:25;;;;;;;19.30;6.93;;;;;;;;;;4988262;28;20028;-80
2023/10/10 08:24:53;;;;;;;20.85;7.13;;;;;;;;;;4988929;28;20271;-78
2023/10/10 08:27:19;;;;;;;15.38;6.95;;;;;;;;;;4995068;28;20022;-77
2023/10/10 08:29:49;;;;;;;18.58;7.00;;;;;;;;;;4994299;28;20025;-78
2023/10/10 08:32:14;;;;;;;18.10;7.00;;;;;;;;;;4993060;28;20695;-78
2023/10/10 08:34:42;;;;;;;22.30;7.57;;;;;;;;;;4987838;28;20079;-78
2023/10/10 08:37:09;;;;;;;21.00;7.00;;;;;;;;;;4986352;28;20513;-80
2023/10/10 08:39:36;;;;;;;17.75;6.80;;;;;;;;;;4976582;28;20081;-80
2023/10/10 08:42:06;;;;;;;21.15;6.82;;;;;;;;;;4990670;28;20099;-80
2023/10/10 08:44:39;;;;;;;20.48;7.20;;;;;;;;;;4992968;28;20410;-78
2023/10/10 08:47:19;;;;;;;21.45;7.18;;;;;;;;;;4984222;28;20194;-78
2023/10/10 08:49:47;;;;;;;20.85;7.15;;;;;;;;;;4990990;28;20103;-78
2023/10/10 08:52:16;;;;;;;21.70;7.78;;;;;;;;;;4992976;28;20482;-80
2023/10/10 08:54:43;;;;;;;21.67;7.20;;;;;;;;;;4990223;28;20022;-79
2023/10/10 08:57:11;;;;;;;20.50;7.38;;;;;;;;;;4987026;28;20026;-78
2023/10/10 08:59:42;;;;;;;22.48;6.57;;;;;;;;;;4995008;28;20105;-78
2023/10/10 09:02:19;;;;;;;21.23;7.20;;;;;;;;;;4993354;28;20742;-78
2023/10/10 09:04:45;;;;;;;18.30;6.35;;;;;;;;;;5004157;28;20029;-77
2023/10/10 09:07:30;;;;;;;24.83;6.93;;;;;;;;;;4996289;28;20030;-79
2023/10/10 09:10:05;;;;;;;22.92;7.10;;;;;;;;;;4989930;28;20026;-81
2023/10/10 09:12:52;;;;;;;18.65;6.63;;;;;;;;;;5000288;28;20061;-81
2023/10/10 09:15:18;;;;;;;17.50;6.93;;;;;;;;;;5002531;28;20448;-80
2023/10/10 09:17:45;;;;;;;17.85;6.70;;;;;;;;;;5003918;28;20037;-76
2023/10/10 09:20:23;;;;;;;18.35;6.90;;;;;;;;;;5002938;28;20021;-79
2023/10/10 09:22:54;;;;;;;29.55;7.30;;;;;;;;;;4997663;28;20226;-76
2023/10/10 09:25:31;;;;;;;23.70;7.55;;;;;;;;;;5000895;28;20037;-78
2023/10/10 09:27:58;;;;;;;19.33;6.85;;;;;;;;;;4998828;28;20030;-79
2023/10/10 09:30:32;;;;;;;22.50;6.78;;;;;;;;;;5005637;28;20033;-80
2023/10/10 09:36:19;;;;;;;18.92;6.47;;;;;;;;;;4954760;28;20034;-80
2023/10/10 09:38:46;;;;;;;24.05;6.70;;;;;;;;;;4992381;28;20028;-77
2023/10/10 09:41:29;;;;;;;28.40;6.53;;;;;;;;;;4988198;28;20044;-79
2023/10/10 09:47:13;;;;;;;23.98;6.03;;;;;;;;;;4982294;28;20038;-76
2023/10/10 09:50:00;;;;;;;20.08;6.60;;;;;;;;;;4991796;28;20489;-76
2023/10/10 09:52:49;;;;;;;17.17;5.93;;;;;;;;;;4980595;28;20550;-79
2023/10/10 09:57:58;;;;;;;18.08;6.03;;;;;;;;;;4986895;28;20065;-76
2023/10/10 10:00:31;;;;;;;13.93;6.03;;;;;;;;;;4988368;28;20586;-77
2023/10/10 10:03:00;;;;;;;10.70;4.63;;;;;;;;;;4971560;28;20019;-78
2023/10/10 10:05:28;;;;;;;11.60;4.75;;;;;;;;;;4987392;28;20026;-79
2023/10/10 10:08:21;;;;;;;11.60;4.95;;;;;;;;;;4994294;28;20025;-76
2023/10/10 10:10:56;;;;;;;11.85;4.78;;;;;;;;;;4996745;28;20560;-77
2023/10/10 10:13:37;;;;;;;11.55;4.35;;;;;;;;;;5000271;28;20191;-81
2023/10/10 10:16:44;;;;;;;9.80;5.13;;;;;;;;;;4996699;28;20018;-80
2023/10/10 10:19:14;;;;;;;12.18;4.78;;;;;;;;;;4998717;28;20057;-81
2023/10/10 10:21:52;;;;;;;10.98;4.40;;;;;;;;;;5001532;28;20101;-81
2023/10/10 10:24:52;;;;;;;13.38;4.70;;;;;;;;;;5000222;28;20068;-78
2023/10/10 10:27:31;;;;;;;10.93;5.00;;;;;;;;;;5002269;28;20444;-79
2023/10/10 10:30:18;;;;;;;9.88;4.40;;;;;;;;;;4993036;28;20113;-79
2023/10/10 10:32:48;;;;;;;8.90;4.20;;;;;;;;;;5001342;28;20223;-79
2023/10/10 10:35:25;;;;;;;15.07;4.60;;;;;;;;;;4981502;28;20462;-79
2023/10/10 10:37:59;;;;;;;12.90;4.30;;;;;;;;;;4995474;28;20033;-79
2023/10/10 10:43:32;;;;;;;9.10;3.85;;;;;;;;;;4964725;28;20776;-79
2023/10/10 10:46:27;;;;;;;10.20;4.22;;;;;;;;;;4974325;28;20041;-80
2023/10/10 10:49:01;;;;;;;17.17;4.18;;;;;;;;;;4985680;28;20038;-78
2023/10/10 10:51:32;;;;;;;10.80;4.20;;;;;;;;;;4988775;28;20040;-82
2023/10/10 10:53:58;;;;;;;12.05;4.35;;;;;;;;;;4985655;28;20039;-80
2023/10/10 10:57:27;;;;;;;11.93;4.60;;;;;;;;;;4991486;28;20034;-83
2023/10/10 11:09:33;;;;;;;;;;;;;;;;;;;;;
2023/10/10 11:14:32;;;;;;;13.50;4.47;;;;;;;;;;5001970;28;20054;-79
2023/10/10 11:17:35;;;;;;;11.95;4.78;;;;;;;;;;4996285;28;20659;-80
2023/10/10 11:21:27;;;;;;;11.80;4.18;;;;;;;;;;4993303;28;20104;-80
2023/10/10 11:24:34;;;;;;;10.48;4.53;;;;;;;;;;4973847;28;20074;-80
2023/10/10 11:29:47;;;;;;;11.43;4.55;;;;;;;;;;4936959;29;20502;-80
2023/10/10 11:32:48;;;;;;;16.90;4.60;;;;;;;;;;4966258;28;20033;-79
2023/10/10 11:36:21;;;;;;;16.70;4.30;;;;;;;;;;4944700;28;20037;-80
2023/10/10 11:38:55;;;;;;;12.68;4.05;;;;;;;;;;4934744;28;20035;-80
2023/10/10 11:41:30;;;;;;;9.52;4.32;;;;;;;;;;4936561;28;20122;-79
2023/10/10 11:44:02;;;;;;;11.18;4.22;;;;;;;;;;4933186;28;20046;-78
2023/10/10 11:46:28;;;;;;;12.35;4.72;;;;;;;;;;4936929;28;20037;-79
2023/10/10 11:48:55;;;;;;;11.20;4.70;;;;;;;;;;4964259;28;20112;-79
2023/10/10 11:52:11;;;;;;;11.65;4.55;;;;;;;;;;4997149;28;20026;-80
2023/10/10 11:54:44;;;;;;;11.57;4.63;;;;;;;;;;4977500;28;20030;-79
2023/10/10 11:57:15;;;;;;;9.05;4.55;;;;;;;;;;4989281;28;20679;-79
2023/10/10 11:59:46;;;;;;;14.57;4.65;;;;;;;;;;4994986;28;20121;-79
2023/10/10 12:02:16;;;;;;;10.82;4.70;;;;;;;;;;4981108;28;20026;-79
2023/10/10 12:04:44;;;;;;;16.88;5.07;;;;;;;;;;4996903;28;20033;-79
2023/10/10 12:07:10;;;;;;;11.68;4.38;;;;;;;;;;4998610;28;20026;-77
2023/10/10 12:09:38;;;;;;;9.68;4.75;;;;;;;;;;4982928;28;20041;-79
2023/10/10 12:12:04;;;;;;;12.55;4.80;;;;;;;;;;4991188;28;20022;-80
2023/10/10 12:14:32;;;;;;;9.73;4.43;;;;;;;;;;4985821;28;20038;-79
2023/10/10 12:16:58;;;;;;;10.73;4.38;;;;;;;;;;4980176;28;20069;-80
2023/10/10 12:19:27;;;;;;;17.40;5.22;;;;;;;;;;4980936;28;20026;-79
2023/10/10 12:21:53;;;;;;;12.57;4.90;;;;;;;;;;4977119;28;20033;-78
2023/10/10 12:24:19;;;;;;;11.68;4.80;;;;;;;;;;4994182;28;20025;-78
2023/10/10 12:26:46;;;;;;;11.88;4.85;;;;;;;;;;4990660;28;20032;-79
2023/10/10 12:29:14;;;;;;;13.27;5.55;;;;;;;;;;4984117;28;20759;-79
2023/10/10 12:31:39;;;;;;;15.63;5.25;;;;;;;;;;4982318;28;20091;-78
2023/10/10 12:34:09;;;;;;;10.95;4.82;;;;;;;;;;4986403;28;20026;-81
2023/10/10 12:36:34;;;;;;;11.90;5.47;;;;;;;;;;4997480;28;20048;-80
2023/10/10 12:39:04;;;;;;;14.88;5.00;;;;;;;;;;4992667;28;20021;-79
2023/10/10 12:41:35;;;;;;;13.35;4.70;;;;;;;;;;4994908;28;20030;-75
2023/10/10 12:44:06;;;;;;;12.00;4.88;;;;;;;;;;4999116;28;20094;-79
2023/10/10 12:46:34;;;;;;;9.60;4.68;;;;;;;;;;4993940;28;20081;-77
2023/10/10 12:48:59;;;;;;;10.85;5.20;;;;;;;;;;4988166;28;20102;-79
2023/10/10 12:51:25;;;;;;;11.75;5.38;;;;;;;;;;4991349;28;20125;-77
2023/10/10 12:53:59;;;;;;;15.57;4.70;;;;;;;;;;4985693;28;20058;-74
2023/10/10 12:56:25;;;;;;;10.82;4.53;;;;;;;;;;4993251;28;20121;-78
2023/10/10 12:58:57;;;;;;;10.82;4.90;;;;;;;;;;4974603;28;20555;-74
2023/10/10 13:01:23;;;;;;;11.18;4.72;;;;;;;;;;4986008;28;20076;-78
2023/10/10 13:03:49;;;;;;;15.20;4.90;;;;;;;;;;4983231;28;20085;-74
2023/10/10 13:06:16;;;;;;;10.13;5.10;;;;;;;;;;4985237;28;20148;-79
2023/10/10 13:08:49;;;;;;;12.60;4.90;;;;;;;;;;4986078;28;20040;-79
2023/10/10 13:11:16;;;;;;;11.57;4.90;;;;;;;;;;4981703;28;20026;-78
2023/10/10 13:13:45;;;;;;;11.45;4.78;;;;;;;;;;4981108;28;20747;-75
2023/10/10 13:16:24;;;;;;;14.02;4.80;;;;;;;;;;4991757;28;20048;-78
2023/10/10 13:18:51;;;;;;;12.70;5.03;;;;;;;;;;4990956;28;20549;-73
2023/10/10 13:21:19;;;;;;;10.30;4.90;;;;;;;;;;4991212;28;20030;-78
2023/10/10 13:23:48;;;;;;;16.67;4.60;;;;;;;;;;4985543;28;20029;-74
2023/10/10 13:26:13;;;;;;;13.65;5.35;;;;;;;;;;4984378;28;20032;-80
2023/10/10 13:28:44;;;;;;;13.35;5.03;;;;;;;;;;4987496;28;20030;-81
2023/10/10 13:31:11;;;;;;;13.60;4.85;;;;;;;;;;4980913;28;20021;-79
2023/10/10 13:33:39;;;;;;;10.23;4.60;;;;;;;;;;4990683;28;20037;-78
2023/10/10 13:36:11;;;;;;;12.55;4.93;;;;;;;;;;4983563;28;20736;-78
2023/10/10 13:38:47;;;;;;;10.88;4.80;;;;;;;;;;4990732;28;20655;-74
2023/10/10 13:41:16;;;;;;;14.38;4.97;;;;;;;;;;4989699;28;20048;-78
2023/10/10 13:43:46;;;;;;;12.38;4.60;;;;;;;;;;4990998;28;20017;-74
2023/10/10 13:46:13;;;;;;;12.68;4.70;;;;;;;;;;4982722;28;20148;-77
2023/10/10 13:48:38;;;;;;;15.40;5.05;;;;;;;;;;4989240;28;20697;-79
2023/10/10 13:51:07;;;;;;;11.35;4.85;;;;;;;;;;4970074;28;20109;-77
2023/10/10 13:53:39;;;;;;;10.27;4.72;;;;;;;;;;4985182;28;20084;-76
2023/10/10 13:56:05;;;;;;;11.77;4.93;;;;;;;;;;4988277;28;20057;-79
2023/10/10 13:58:31;;;;;;;11.77;5.30;;;;;;;;;;4976795;28;20014;-79
2023/10/10 14:01:13;;;;;;;12.38;4.70;;;;;;;;;;4981010;28;20072;-77
2023/10/10 14:03:47;;;;;;;14.90;4.90;;;;;;;;;;4989205;28;20227;-74
2023/10/10 14:06:16;;;;;;;15.50;5.25;;;;;;;;;;4985933;28;20050;-74
2023/10/10 14:08:47;;;;;;;10.60;4.32;;;;;;;;;;4981230;28;20112;-74
2023/10/10 14:11:20;;;;;;;15.35;4.70;;;;;;;;;;4983804;28;20131;-79
2023/10/10 14:13:49;;;;;;;15.00;4.63;;;;;;;;;;4987739;28;20042;-73
2023/10/10 14:16:15;;;;;;;11.40;4.95;;;;;;;;;;4986014;28;20018;-78
2023/10/10 14:18:46;;;;;;;13.70;5.10;;;;;;;;;;4978669;28;20026;-75
2023/10/10 14:21:16;;;;;;;9.93;4.68;;;;;;;;;;4988251;28;20650;-73
2023/10/10 14:23:44;;;;;;;11.48;4.70;;;;;;;;;;4987037;28;20028;-74
2023/10/10 14:26:18;;;;;;;12.50;4.45;;;;;;;;;;4984713;28;20033;-74
2023/10/10 14:28:50;;;;;;;10.98;4.70;;;;;;;;;;4988345;28;20022;-74
2023/10/10 14:31:24;;;;;;;11.75;4.88;;;;;;;;;;4990392;28;20049;-78
2023/10/10 14:33:50;;;;;;;12.20;5.10;;;;;;;;;;4984927;28;20032;-77
2023/10/10 14:36:16;;;;;;;11.95;4.75;;;;;;;;;;4976954;28;20089;-79
2023/10/10 14:38:46;;;;;;;10.88;4.60;;;;;;;;;;4984184;28;20495;-74
2023/10/10 14:41:19;;;;;;;12.13;4.88;;;;;;;;;;4978780;28;20144;-80
2023/10/10 14:43:49;;;;;;;11.38;4.68;;;;;;;;;;4993011;28;20080;-77
2023/10/10 14:46:21;;;;;;;12.88;4.50;;;;;;;;;;4979831;28;20026;-80
2023/10/10 14:48:48;;;;;;;9.77;4.45;;;;;;;;;;4981693;28;20053;-76
2023/10/10 14:51:17;;;;;;;11.82;4.75;;;;;;;;;;4992137;28;20030;-80
2023/10/10 14:53:51;;;;;;;11.55;5.18;;;;;;;;;;4977943;28;20025;-76
2023/10/10 14:56:24;;;;;;;15.13;4.60;;;;;;;;;;4980895;28;20022;-79
2023/10/10 14:58:50;;;;;;;14.55;4.90;;;;;;;;;;4979680;28;20053;-75
2023/10/10 15:01:20;;;;;;;13.40;5.35;;;;;;;;;;4971488;28;20124;-77
2023/10/10 15:03:47;;;;;;;10.02;4.90;;;;;;;;;;4982082;28;20030;-75
2023/10/10 15:06:15;;;;;;;10.63;5.22;;;;;;;;;;4979350;28;20030;-80
2023/10/10 15:08:43;;;;;;;8.38;4.53;;;;;;;;;;4980026;28;20041;-75
2023/10/10 15:11:11;;;;;;;14.88;4.20;;;;;;;;;;4974596;28;20111;-80
2023/10/10 15:13:40;;;;;;;9.98;4.60;;;;;;;;;;4985096;28;20779;-80
2023/10/10 15:16:09;;;;;;;10.55;4.30;;;;;;;;;;4987982;28;20025;-77
2023/10/10 15:18:36;;;;;;;9.10;4.50;;;;;;;;;;4989340;28;20034;-76
2023/10/10 15:21:02;;;;;;;10.70;4.70;;;;;;;;;;4980570;28;20029;-81
2023/10/10 15:23:28;;;;;;;9.90;4.75;;;;;;;;;;4987318;28;20022;-80
2023/10/10 15:25:55;;;;;;;9.30;5.05;;;;;;;;;;4986620;28;20032;-76
2023/10/10 15:28:21;;;;;;;11.75;4.57;;;;;;;;;;4987485;28;20095;-79
2023/10/10 15:30:46;;;;;;;13.23;4.43;;;;;;;;;;4976107;28;20029;-76
2023/10/10 15:33:17;;;;;;;9.88;4.40;;;;;;;;;;4984236;28;20022;-79
2023/10/10 15:35:46;;;;;;;12.13;4.40;;;;;;;;;;4990831;28;20036;-76
2023/10/10 15:38:12;;;;;;;11.77;4.57;;;;;;;;;;4985623;28;20017;-80
2023/10/10 15:40:43;;;;;;;9.95;4.10;;;;;;;;;;4982568;28;20034;-77
2023/10/10 15:43:11;;;;;;;9.48;4.47;;;;;;;;;;4996002;28;20100;-76
2023/10/10 15:45:38;;;;;;;11.70;4.60;;;;;;;;;;4997331;28;20049;-77
2023/10/10 15:48:04;;;;;;;8.38;4.07;;;;;;;;;;4986132;28;20536;-75
2023/10/10 15:50:31;;;;;;;13.60;4.20;;;;;;;;;;4983241;28;20041;-76
2023/10/10 15:52:57;;;;;;;16.60;4.88;;;;;;;;;;4995190;28;20269;-76
2023/10/10 15:55:25;;;;;;;13.55;4.40;;;;;;;;;;4993858;28;21041;-76
2023/10/10 15:57:53;;;;;;;10.63;4.47;;;;;;;;;;4996387;28;20089;-76
2023/10/10 16:00:21;;;;;;;14.55;4.00;;;;;;;;;;4994507;28;20154;-76
2023/10/10 16:02:52;;;;;;;11.55;4.53;;;;;;;;;;5000418;28;20014;-76
2023/10/10 16:05:19;;;;;;;11.23;4.20;;;;;;;;;;5001298;28;20026;-76
2023/10/10 16:07:47;;;;;;;14.05;4.45;;;;;;;;;;5008725;28;20022;-76
2023/10/10 16:10:17;;;;;;;12.93;4.57;;;;;;;;;;5009126;28;20089;-80
2023/10/10 16:12:43;;;;;;;10.13;4.70;;;;;;;;;;5009601;28;20057;-77
2023/10/10 16:15:18;;;;;;;9.88;4.68;;;;;;;;;;5000325;28;20045;-78
2023/10/10 16:17:51;;;;;;;15.93;4.95;;;;;;;;;;5010296;28;20043;-78
2023/10/10 16:20:22;;;;;;;13.02;4.47;;;;;;;;;;5007991;28;20034;-79
2023/10/10 16:22:52;;;;;;;10.48;4.57;;;;;;;;;;4999108;28;20017;-79
2023/10/10 16:25:19;;;;;;;11.90;4.70;;;;;;;;;;4997133;28;20089;-80
2023/10/10 16:27:44;;;;;;;12.63;5.00;;;;;;;;;;4996908;28;20034;-77
2023/10/10 16:30:10;;;;;;;9.48;4.40;;;;;;;;;;4999611;28;20030;-79
2023/10/10 16:32:37;;;;;;;12.38;4.97;;;;;;;;;;4995201;28;20087;-78
2023/10/10 16:35:05;;;;;;;10.60;5.10;;;;;;;;;;5012090;28;20037;-79
2023/10/10 16:37:36;;;;;;;14.25;6.65;;;;;;;;;;4989452;28;20100;-80
2023/10/10 16:40:03;;;;;;;14.23;6.10;;;;;;;;;;4991914;28;20034;-80
2023/10/10 16:42:29;;;;;;;14.80;5.22;;;;;;;;;;4999065;28;20105;-80
2023/10/10 16:44:54;;;;;;;13.35;5.88;;;;;;;;;;4985163;28;20026;-77
2023/10/10 16:47:21;;;;;;;12.93;5.00;;;;;;;;;;4998466;28;20030;-76
2023/10/10 16:49:49;;;;;;;24.75;14.55;;;;;;;;;;4989767;28;20076;-76
2023/10/10 16:52:14;;;;;;;16.88;7.95;;;;;;;;;;4999044;28;20017;-80
2023/10/10 16:54:45;;;;;;;14.13;6.50;;;;;;;;;;4997179;28;20847;-79
2023/10/10 16:57:11;;;;;;;10.52;5.13;;;;;;;;;;5004907;28;20062;-76
2023/10/10 16:59:37;;;;;;;14.82;5.22;;;;;;;;;;4988207;28;20083;-76
2023/10/10 17:02:02;;;;;;;9.32;5.03;;;;;;;;;;4974590;28;20036;-80
2023/10/10 17:04:28;;;;;;;13.55;5.65;;;;;;;;;;4980336;28;20217;-76
2023/10/10 17:06:53;;;;;;;12.40;5.45;;;;;;;;;;4987624;28;20029;-76
2023/10/10 17:09:19;;;;;;;14.13;5.68;;;;;;;;;;4999340;28;20025;-76
2023/10/10 17:11:50;;;;;;;14.82;6.22;;;;;;;;;;4982168;28;20159;-76
2023/10/10 17:14:19;;;;;;;14.48;6.47;;;;;;;;;;4992809;28;20061;-75
2023/10/10 17:16:44;;;;;;;15.55;6.38;;;;;;;;;;4990942;28;20319;-75
2023/10/10 17:19:10;;;;;;;12.98;6.40;;;;;;;;;;4988792;28;20030;-76
2023/10/10 17:21:35;;;;;;;13.18;5.85;;;;;;;;;;4987647;28;20032;-76
2023/10/10 17:24:03;;;;;;;14.75;5.63;;;;;;;;;;5003560;28;20330;-80
2023/10/10 17:26:30;;;;;;;11.07;5.45;;;;;;;;;;4990931;28;20292;-76
2023/10/10 17:28:59;;;;;;;12.00;5.47;;;;;;;;;;4983234;28;20104;-76
2023/10/10 17:31:25;;;;;;;15.85;6.30;;;;;;;;;;4992303;28;20028;-81
2023/10/10 17:33:51;;;;;;;19.38;6.03;;;;;;;;;;4989286;28;20093;-76
2023/10/10 17:36:18;;;;;;;12.75;6.00;;;;;;;;;;4986543;28;20049;-80
2023/10/10 17:38:44;;;;;;;15.57;5.68;;;;;;;;;;4987234;28;20022;-76
2023/10/10 17:41:12;;;;;;;13.90;5.95;;;;;;;;;;4983351;28;20022;-82
2023/10/10 17:43:38;;;;;;;11.40;5.40;;;;;;;;;;4985178;28;20109;-76